Time;durP1;ratioP1;P1;durP2;ratioP2;P2;SDS_P1;SDS_P2;PMS_P1;PMS_P2;Temp;Humidity;BMP_temperature;BMP_pressure;BME280_temperature;BME280_humidity;BME280_pressure;Samples;Min_cycle;Max_cycle;Signal;HPM_P1;HPM_P2
2022/10/08 00:01:11;;;;;;;14.93;11.22;;;;;;;4.52;100.00;100430.06;1622964;87;21070;-76
2022/10/08 00:03:43;;;;;;;17.50;11.85;;;;;;;4.49;100.00;100429.63;1637064;87;21816;-76
2022/10/08 00:06:14;;;;;;;18.93;10.63;;;;;;;4.45;100.00;100428.77;1633447;87;21105;-76
2022/10/08 00:08:48;;;;;;;14.03;9.50;;;;;;;4.42;100.00;100421.47;1636883;87;21494;-77
2022/10/08 00:11:23;;;;;;;10.93;8.73;;;;;;;4.39;100.00;100419.79;1622920;87;20982;-77
2022/10/08 00:17:08;;;;;;;14.15;9.30;;;;;;;4.34;100.00;100407.34;1636844;87;21007;-75
2022/10/08 00:19:36;;;;;;;10.88;8.68;;;;;;;4.31;100.00;100402.61;1619553;87;20979;-76
2022/10/08 00:22:03;;;;;;;12.55;9.45;;;;;;;4.26;100.00;100400.47;1623974;88;20988;-76
2022/10/08 00:24:32;;;;;;;13.05;8.85;;;;;;;4.21;100.00;100399.17;1624107;88;21007;-76
2022/10/08 00:26:59;;;;;;;11.15;8.45;;;;;;;4.19;100.00;100397.48;1666353;85;21057;-76
2022/10/08 00:29:25;;;;;;;12.00;8.38;;;;;;;4.14;100.00;100391.05;1628937;87;21252;-76
2022/10/08 00:31:52;;;;;;;10.68;8.30;;;;;;;4.09;100.00;100390.19;1621295;88;21015;-76
2022/10/08 00:34:22;;;;;;;14.87;9.30;;;;;;;4.05;100.00;100387.18;1628926;88;21580;-75
2022/10/08 00:36:53;;;;;;;10.08;7.90;;;;;;;4.02;100.00;100387.17;1621269;88;21075;-75
2022/10/08 00:39:22;;;;;;;8.68;7.55;;;;;;;3.99;100.00;100385.92;1671425;85;21478;-75
2022/10/08 00:41:51;;;;;;;10.35;8.58;;;;;;;3.96;100.00;100391.06;1628946;88;21765;-76
2022/10/08 00:44:53;;;;;;;10.28;7.60;;;;;;;3.94;100.00;100388.91;1621267;88;21024;-76
2022/10/08 00:47:39;;;;;;;10.88;7.72;;;;;;;3.93;100.00;100391.91;1671942;85;21056;-76
2022/10/08 00:50:16;;;;;;;12.15;9.30;;;;;;;3.93;100.00;100387.20;1634965;87;21498;-76
2022/10/08 00:52:51;;;;;;;15.08;9.08;;;;;;;3.91;100.00;100383.33;1621288;88;21105;-76
2022/10/08 00:55:20;;;;;;;14.28;10.90;;;;;;;3.84;100.00;100384.61;1666306;85;21109;-76
2022/10/08 00:57:46;;;;;;;12.78;8.73;;;;;;;3.80;100.00;100378.59;1628799;88;21041;-77
2022/10/08 01:00:18;;;;;;;11.80;7.47;;;;;;;3.78;100.00;100382.48;1621425;88;20962;-77
2022/10/08 01:02:46;;;;;;;7.92;7.08;;;;;;;3.76;100.00;100372.61;1663531;85;21437;-76
2022/10/08 01:05:15;;;;;;;8.70;7.45;;;;;;;3.76;100.00;100378.19;1638454;87;21019;-77
2022/10/08 01:07:52;;;;;;;8.53;7.72;;;;;;;3.75;100.00;100377.33;1623897;88;21575;-77
2022/10/08 01:10:45;;;;;;;8.95;7.45;;;;;;;3.76;100.00;100373.05;1627337;88;21537;-77
2022/10/08 01:13:44;;;;;;;9.03;6.47;;;;;;;3.77;100.00;100376.91;1621451;88;21038;-76
2022/10/08 01:16:26;;;;;;;9.38;6.70;;;;;;;3.78;100.00;100372.62;1673281;85;21007;-76
2022/10/08 01:19:37;;;;;;;11.33;7.25;;;;;;;3.76;100.00;100372.61;1640230;86;20999;-76
2022/10/08 01:22:39;;;;;;;10.10;7.45;;;;;;;3.77;100.00;100364.47;1632965;87;21177;-76
2022/10/08 01:25:34;;;;;;;9.58;8.40;;;;;;;3.78;100.00;100366.19;1635480;87;21010;-75
2022/10/08 01:28:23;;;;;;;10.38;6.35;;;;;;;3.79;100.00;100369.19;1636268;87;21014;-76
2022/10/08 01:31:10;;;;;;;5.85;5.12;;;;;;;3.77;100.00;100365.75;1630879;88;21038;-76
2022/10/08 01:33:57;;;;;;;6.10;4.85;;;;;;;3.76;100.00;100359.75;1636301;87;20974;-77
2022/10/08 01:36:23;;;;;;;7.05;5.12;;;;;;;3.77;100.00;100366.61;1630831;88;21467;-76
2022/10/08 01:38:54;;;;;;;6.12;5.22;;;;;;;3.76;100.00;100363.61;1635928;87;21525;-76
2022/10/08 01:41:23;;;;;;;5.62;4.92;;;;;;;3.73;100.00;100361.03;1608538;89;21077;-76
2022/10/08 01:43:54;;;;;;;6.53;5.33;;;;;;;3.74;100.00;100360.60;1630883;88;21083;-76
2022/10/08 01:46:24;;;;;;;6.87;5.62;;;;;;;3.75;100.00;100364.47;1636061;87;21058;-76
2022/10/08 01:48:53;;;;;;;7.45;6.65;;;;;;;3.75;100.00;100364.47;1631215;88;21122;-76
2022/10/08 01:51:28;;;;;;;7.50;6.58;;;;;;;3.75;100.00;100366.18;1635982;87;21013;-76
2022/10/08 01:53:54;;;;;;;7.37;6.55;;;;;;;3.74;100.00;100366.61;1608827;89;21148;-76
2022/10/08 01:56:26;;;;;;;8.00;5.28;;;;;;;3.73;100.00;100361.46;1630948;88;21066;-76
2022/10/08 01:59:09;;;;;;;6.67;5.92;;;;;;;3.71;100.00;100362.74;1636603;87;21060;-76
2022/10/08 02:01:53;;;;;;;7.65;6.85;;;;;;;3.70;100.00;100364.02;1631186;88;22371;-76
2022/10/08 02:04:32;;;;;;;8.15;6.62;;;;;;;3.65;100.00;100361.44;1636104;87;21549;-76
2022/10/08 02:07:18;;;;;;;8.05;7.25;;;;;;;3.62;100.00;100358.86;1630869;88;21125;-77
2022/10/08 02:09:52;;;;;;;9.23;8.33;;;;;;;3.57;100.00;100358.02;1635158;87;21438;-76
2022/10/08 02:12:21;;;;;;;12.30;7.97;;;;;;;3.49;100.00;100367.43;1630855;88;21014;-76
2022/10/08 02:14:52;;;;;;;13.60;7.22;;;;;;;3.45;100.00;100365.70;1635962;87;21783;-76
2022/10/08 02:18:05;;;;;;;13.48;8.40;;;;;;;3.45;100.00;100366.56;1630783;88;21062;-76
2022/10/08 02:20:49;;;;;;;12.23;7.75;;;;;;;3.42;100.00;100361.84;1619549;87;21027;-76
2022/10/08 02:23:33;;;;;;;10.43;8.30;;;;;;;3.39;100.00;100364.00;1635858;87;20974;-76
2022/10/08 02:26:04;;;;;;;14.60;8.75;;;;;;;3.37;100.00;100367.42;1618758;88;21098;-77
2022/10/08 02:29:00;;;;;;;13.32;7.40;;;;;;;3.33;100.00;100368.27;1623629;87;21183;-77
2022/10/08 02:31:52;;;;;;;11.00;7.42;;;;;;;3.30;100.00;100366.97;1596167;89;21181;-77
2022/10/08 02:34:23;;;;;;;12.82;7.95;;;;;;;3.27;100.00;100360.53;1619573;88;21075;-77
2022/10/08 02:37:01;;;;;;;10.45;8.23;;;;;;;3.26;100.00;100360.09;1594998;90;21554;-77
2022/10/08 02:39:29;;;;;;;11.25;8.08;;;;;;;3.24;100.00;100357.95;1615613;88;21038;-77
2022/10/08 02:41:59;;;;;;;10.43;7.58;;;;;;;3.22;100.00;100356.66;1623806;88;21046;-77
2022/10/08 02:44:34;;;;;;;13.95;8.00;;;;;;;3.19;100.00;100354.11;1618405;88;21459;-77
2022/10/08 02:47:04;;;;;;;10.53;7.67;;;;;;;3.17;100.00;100353.67;1616811;88;21027;-76
2022/10/08 02:49:34;;;;;;;10.25;7.25;;;;;;;3.13;100.00;100351.51;1618512;88;21071;-76
2022/10/08 02:52:02;;;;;;;13.50;8.58;;;;;;;3.10;100.00;100354.06;1624029;88;21018;-76
2022/10/08 02:54:33;;;;;;;15.90;8.33;;;;;;;3.08;100.00;100351.91;1623999;87;21426;-77
2022/10/08 02:57:12;;;;;;;18.98;8.85;;;;;;;3.05;100.00;100356.61;1618546;88;21027;-76
2022/10/08 02:59:38;;;;;;;13.50;7.20;;;;;;;3.01;100.00;100344.61;1595450;90;21073;-78
2022/10/08 03:02:05;;;;;;;13.08;7.53;;;;;;;2.97;100.00;100357.03;1618587;88;21028;-78
2022/10/08 03:04:40;;;;;;;11.08;7.40;;;;;;;2.95;100.00;100355.31;1618568;88;21087;-78
2022/10/08 03:07:06;;;;;;;9.78;7.22;;;;;;;2.93;100.00;100360.45;1618690;88;21161;-76
2022/10/08 03:09:38;;;;;;;10.45;7.70;;;;;;;2.93;100.00;100357.88;1618517;88;20987;-76
2022/10/08 03:12:05;;;;;;;10.08;7.70;;;;;;;2.92;100.00;100361.30;1612243;88;20979;-76
2022/10/08 03:14:34;;;;;;;12.85;7.67;;;;;;;2.91;100.00;100359.58;1623909;87;20998;-77
2022/10/08 03:17:01;;;;;;;9.58;6.87;;;;;;;2.91;100.00;100356.14;1618536;88;21566;-76
2022/10/08 03:19:29;;;;;;;10.50;6.87;;;;;;;2.91;100.00;100356.14;1623762;88;22338;-76
2022/10/08 03:21:57;;;;;;;10.85;7.33;;;;;;;2.88;100.00;100353.13;1623783;88;20951;-76
2022/10/08 03:24:24;;;;;;;11.30;7.60;;;;;;;2.89;100.00;100356.56;1618645;88;21032;-76
2022/10/08 03:26:52;;;;;;;9.38;7.28;;;;;;;2.86;100.00;100352.27;1618582;88;21035;-75
2022/10/08 03:29:19;;;;;;;9.93;5.97;;;;;;;2.86;100.00;100359.12;1618832;88;21587;-75
2022/10/08 03:31:49;;;;;;;8.83;5.92;;;;;;;2.85;100.00;100354.83;1618802;88;22593;-75
2022/10/08 03:34:15;;;;;;;9.75;6.40;;;;;;;2.85;100.00;100351.84;1618744;88;20991;-75
2022/10/08 03:36:42;;;;;;;8.15;6.50;;;;;;;2.85;100.00;100356.97;1618879;88;21008;-77
2022/10/08 03:39:10;;;;;;;9.50;6.65;;;;;;;2.84;100.00;100353.97;1618870;88;21118;-77
2022/10/08 03:41:37;;;;;;;9.83;6.37;;;;;;;2.86;100.00;100350.98;1618910;88;20996;-76
2022/10/08 03:44:08;;;;;;;7.08;5.35;;;;;;;2.85;100.00;100354.83;1623774;88;21168;-76
2022/10/08 03:46:34;;;;;;;7.28;5.58;;;;;;;2.85;100.00;100351.84;1623800;88;20999;-77
2022/10/08 03:49:01;;;;;;;6.47;5.60;;;;;;;2.86;100.00;100353.55;1618535;88;21071;-76
2022/10/08 03:51:27;;;;;;;12.07;6.22;;;;;;;2.87;100.00;100352.70;1618645;88;21035;-77
2022/10/08 03:53:56;;;;;;;8.75;6.05;;;;;;;2.87;100.00;100347.56;1618541;88;21000;-77
2022/10/08 03:56:25;;;;;;;8.78;6.50;;;;;;;2.88;100.00;100348.00;1611561;88;21934;-77
2022/10/08 03:58:55;;;;;;;6.80;5.42;;;;;;;2.86;100.00;100347.13;1623762;88;21541;-77
2022/10/08 04:01:22;;;;;;;7.45;5.28;;;;;;;2.86;100.00;100352.27;1623794;88;20998;-77
2022/10/08 04:03:48;;;;;;;9.63;5.67;;;;;;;2.87;100.00;100345.00;1618630;88;21137;-77
2022/10/08 04:06:15;;;;;;;8.23;6.03;;;;;;;2.86;100.00;100345.84;1618650;88;20983;-77
2022/10/08 04:08:42;;;;;;;7.20;5.97;;;;;;;2.87;100.00;100342.85;1618548;88;21155;-77
2022/10/08 04:11:11;;;;;;;7.70;6.22;;;;;;;2.88;100.00;100340.72;1618550;88;21473;-76
2022/10/08 04:13:39;;;;;;;9.05;5.30;;;;;;;2.87;100.00;100334.72;1623904;87;21450;-77
2022/10/08 04:16:13;;;;;;;8.45;6.15;;;;;;;2.88;100.00;100338.14;1624019;88;21423;-76
2022/10/08 04:18:39;;;;;;;8.58;6.55;;;;;;;2.89;100.00;100338.58;1596449;89;21554;-76
2022/10/08 04:21:10;;;;;;;12.58;7.55;;;;;;;2.88;100.00;100337.72;1652820;86;20951;-76
2022/10/08 04:23:37;;;;;;;9.53;6.62;;;;;;;2.88;100.00;100339.43;1648481;87;20971;-76
2022/10/08 04:26:04;;;;;;;10.45;6.90;;;;;;;2.90;100.00;100341.58;1656048;86;21066;-76
2022/10/08 04:28:34;;;;;;;13.05;6.95;;;;;;;2.90;100.00;100337.73;1648735;86;21111;-76
2022/10/08 04:31:04;;;;;;;9.95;6.55;;;;;;;2.90;100.00;100341.16;1637470;86;21045;-76
2022/10/08 04:33:32;;;;;;;11.93;5.97;;;;;;;2.91;100.00;100341.59;1648179;86;21173;-76
2022/10/08 04:35:59;;;;;;;13.05;7.15;;;;;;;2.91;100.00;100339.02;1631637;87;21052;-77
2022/10/08 04:38:26;;;;;;;10.00;6.40;;;;;;;2.92;100.00;100335.59;1630984;88;21173;-77
2022/10/08 04:41:08;;;;;;;9.63;6.97;;;;;;;2.91;100.00;100333.88;1638665;86;21025;-76
2022/10/08 04:43:36;;;;;;;8.53;6.35;;;;;;;2.92;100.00;100329.17;1648398;86;20976;-76
2022/10/08 04:46:03;;;;;;;11.45;6.28;;;;;;;2.95;100.00;100339.89;1656039;86;21152;-76
2022/10/08 04:48:30;;;;;;;7.62;6.42;;;;;;;3.00;100.00;100340.74;1648385;87;21083;-76
2022/10/08 04:50:59;;;;;;;11.85;8.08;;;;;;;3.05;100.00;100342.91;1656108;86;21051;-76
2022/10/08 04:53:26;;;;;;;16.27;8.70;;;;;;;3.10;100.00;100341.22;1648440;87;21492;-76
2022/10/08 04:55:53;;;;;;;19.73;9.58;;;;;;;3.16;100.00;100341.66;1656052;86;21006;-76
2022/10/08 04:58:20;;;;;;;11.38;7.97;;;;;;;3.21;100.00;100339.52;1648507;87;21115;-77
2022/10/08 05:00:46;;;;;;;11.65;6.42;;;;;;;3.27;100.00;100335.68;1655962;86;21006;-77
2022/10/08 05:03:13;;;;;;;14.47;7.22;;;;;;;3.34;100.00;100333.56;1648506;86;21015;-76
2022/10/08 05:05:42;;;;;;;14.43;7.05;;;;;;;3.43;100.00;100337.41;1637222;87;21002;-77
2022/10/08 05:08:08;;;;;;;14.20;7.00;;;;;;;3.51;100.00;100336.14;1634938;87;21081;-76
2022/10/08 05:10:38;;;;;;;15.00;7.90;;;;;;;3.59;100.00;100329.30;1634520;87;21194;-77
2022/10/08 05:13:06;;;;;;;14.20;8.18;;;;;;;3.64;100.00;100331.42;1635146;87;21007;-77
2022/10/08 05:15:34;;;;;;;20.45;9.65;;;;;;;3.69;100.00;100331.00;1635783;87;21174;-77
2022/10/08 05:18:02;;;;;;;25.77;10.70;;;;;;;3.75;100.00;100329.73;1635850;87;21051;-76
2022/10/08 05:20:28;;;;;;;19.35;10.60;;;;;;;3.84;100.00;100337.00;1623931;87;21596;-77
2022/10/08 05:22:57;;;;;;;13.88;7.67;;;;;;;3.91;100.00;100334.44;1621303;88;20960;-77
2022/10/08 05:25:23;;;;;;;13.00;7.80;;;;;;;4.03;100.00;100336.13;1659620;86;21431;-77
2022/10/08 05:27:50;;;;;;;10.98;8.00;;;;;;;4.12;100.00;100330.55;1664931;85;21065;-78
2022/10/08 05:30:17;;;;;;;12.93;8.50;;;;;;;4.24;100.00;100336.52;1671865;85;21022;-78
2022/10/08 05:32:43;;;;;;;13.93;7.15;;;;;;;4.31;100.00;100336.95;1671992;85;21043;-77
2022/10/08 05:35:10;;;;;;;14.05;8.18;;;;;;;4.40;100.00;100337.77;1666828;85;21128;-77
2022/10/08 05:37:36;;;;;;;17.15;9.05;;;;;;;4.52;100.00;100334.31;1666784;85;21432;-77
2022/10/08 05:40:04;;;;;;;10.82;7.10;;;;;;;4.63;100.00;100336.41;1671073;85;21016;-77
2022/10/08 05:42:31;;;;;;;19.37;7.83;;;;;;;4.75;100.00;100336.81;1659716;86;21523;-77
2022/10/08 05:44:57;;;;;;;10.53;7.58;;;;;;;4.84;100.00;100338.90;1665068;85;21019;-76
2022/10/08 05:47:24;;;;;;;11.00;7.33;;;;;;;4.95;100.00;100335.44;1671965;85;21162;-77
2022/10/08 05:49:50;;;;;;;16.77;8.25;;;;;;;5.02;100.00;100328.93;1671825;85;21023;-77
2022/10/08 05:52:17;;;;;;;11.95;8.08;;;;;;;5.10;100.00;100325.89;1670377;85;21124;-77
2022/10/08 05:54:44;;;;;;;14.85;9.20;;;;;;;5.19;100.00;100323.27;1664651;85;21019;-77
2022/10/08 05:57:11;;;;;;;11.95;7.78;;;;;;;5.31;100.00;100324.05;1660675;85;21078;-77
2022/10/08 05:59:38;;;;;;;11.30;7.35;;;;;;;5.44;100.00;100324.38;1671869;85;21145;-77
2022/10/08 06:02:05;;;;;;;16.40;8.08;;;;;;;5.56;100.00;100325.59;1666806;85;20980;-76
2022/10/08 06:04:32;;;;;;;14.83;8.68;;;;;;;5.67;100.00;100316.47;1666746;85;21024;-76
2022/10/08 06:06:58;;;;;;;15.78;9.55;;;;;;;5.77;100.00;100321.98;1662000;85;20967;-76
2022/10/08 06:09:25;;;;;;;14.45;8.60;;;;;;;5.87;100.00;100320.59;1666594;85;20975;-77
2022/10/08 06:11:52;;;;;;;11.70;8.03;;;;;;;5.99;100.00;100317.09;1671912;85;21146;-76
2022/10/08 06:14:19;;;;;;;13.85;7.42;;;;;;;6.11;100.00;100322.56;1666687;85;21567;-77
2022/10/08 06:16:45;;;;;;;24.57;9.68;;;;;;;6.24;100.00;100324.14;1671783;85;20960;-77
2022/10/08 06:19:12;;;;;;;13.15;8.58;;;;;;;6.37;100.00;100321.02;1671168;85;21059;-77
2022/10/08 06:21:39;;;;;;;14.58;8.55;;;;;;;6.50;100.00;100319.55;1664419;85;21074;-76
2022/10/08 06:24:08;;;;;;;13.58;9.50;;;;;;;6.65;100.00;100322.83;1672296;85;21217;-77
2022/10/08 06:26:37;;;;;;;16.65;8.35;;;;;;;6.77;100.00;100313.65;1670225;85;20963;-77
2022/10/08 06:29:06;;;;;;;13.25;8.85;;;;;;;6.91;100.00;100304.83;1679494;85;21035;-77
2022/10/08 06:31:33;;;;;;;10.70;7.87;;;;;;;7.02;100.00;100306.40;1667308;85;21491;-77
2022/10/08 06:34:03;;;;;;;11.68;8.15;;;;;;;7.12;100.00;100300.23;1672205;85;21066;-77
2022/10/08 06:36:31;;;;;;;14.73;8.90;;;;;;;7.24;100.00;100306.08;1679044;85;21539;-77
2022/10/08 06:39:03;;;;;;;14.03;8.70;;;;;;;7.39;100.00;100291.22;1674140;85;20952;-77
2022/10/08 06:41:33;;;;;;;13.75;7.85;;;;;;;7.51;100.00;100293.17;1679450;85;21610;-77
2022/10/08 06:44:02;;;;;;;12.25;7.35;;;;;;;7.65;100.00;100289.48;1674395;85;21078;-77
2022/10/08 06:46:30;;;;;;;15.95;8.05;;;;;;;7.78;100.00;100291.02;1672655;85;21007;-77
2022/10/08 06:48:57;;;;;;;13.35;8.60;;;;;;;7.89;100.00;100284.75;1675537;85;21125;-77
2022/10/08 06:51:23;;;;;;;21.75;9.13;;;;;;;8.02;100.00;100281.49;1674173;85;21046;-77
2022/10/08 06:53:55;;;;;;;10.98;8.68;;;;;;;8.15;100.00;100275.66;1679301;85;21083;-77
2022/10/08 06:56:23;;;;;;;16.42;7.92;;;;;;;8.27;100.00;100276.28;1679368;85;21002;-77
2022/10/08 06:58:50;;;;;;;12.60;7.05;;;;;;;8.40;100.00;100273.02;1672159;85;21102;-77
2022/10/08 07:01:20;;;;;;;9.68;7.37;;;;;;;8.53;100.00;100272.36;1676951;85;21104;-77
2022/10/08 07:03:56;;;;;;;11.10;7.15;;;;;;;8.66;100.00;100273.80;1669026;85;20964;-77
2022/10/08 07:06:23;;;;;;;18.20;8.48;;;;;;;8.79;100.00;100267.94;1679199;85;21024;-78
2022/10/08 07:08:54;;;;;;;18.07;8.23;;;;;;;8.91;100.00;100262.02;1689495;85;21046;-77
2022/10/08 07:11:21;;;;;;;10.18;7.58;;;;;;;9.04;100.00;100266.92;1689576;85;21034;-78
2022/10/08 07:13:48;;;;;;;9.43;6.35;;;;;;;9.20;100.00;100261.79;1689505;85;21797;-78
2022/10/08 07:16:17;;;;;;;18.15;7.03;;;;;;;9.35;100.00;100260.16;1653943;86;21499;-79
2022/10/08 07:18:46;;;;;;;11.63;6.67;;;;;;;9.47;100.00;100262.88;1625951;87;20976;-78
2022/10/08 07:21:16;;;;;;;8.58;6.40;;;;;;;9.61;100.00;100261.65;1655831;86;21463;-76
2022/10/08 07:23:43;;;;;;;16.87;8.30;;;;;;;9.76;100.00;100256.98;1691022;85;21074;-77
2022/10/08 07:26:19;;;;;;;12.30;6.65;;;;;;;9.90;100.00;100260.92;1691288;85;21526;-77
2022/10/08 07:28:56;;;;;;;11.35;6.72;;;;;;;10.07;100.00;100263.52;1690976;85;20943;-80
2022/10/08 07:31:30;;;;;;;12.05;7.10;;;;;;;10.24;100.00;100257.44;1691979;84;21030;-78
2022/10/08 07:33:58;;;;;;;13.88;7.78;;;;;;;10.39;100.00;100257.03;1693336;84;21478;-77
2022/10/08 07:36:24;;;;;;;9.53;6.78;;;;;;;10.54;100.00;100252.69;1693349;84;21015;-78
2022/10/08 07:38:58;;;;;;;13.08;6.60;;;;;;;10.68;100.00;100247.08;1693362;84;21557;-77
2022/10/08 07:41:25;;;;;;;14.45;6.30;;;;;;;10.81;100.00;100244.95;1693238;84;21011;-77
2022/10/08 07:43:53;;;;;;;10.38;5.15;;;;;;;10.97;100.00;100243.61;1693472;84;21026;-76
2022/10/08 07:46:20;;;;;;;7.97;5.03;;;;;;;11.12;100.00;100239.67;1693744;84;21066;-77
2022/10/08 07:48:46;;;;;;;7.95;5.97;;;;;;;11.29;100.00;100233.47;1693468;84;20983;-77
2022/10/08 07:51:15;;;;;;;10.55;6.20;;;;;;;11.46;100.00;100233.77;1693362;84;21144;-77
2022/10/08 07:53:42;;;;;;;14.83;5.40;;;;;;;11.64;100.00;100225.79;1693285;84;21557;-77
2022/10/08 07:56:11;;;;;;;12.70;5.97;;;;;;;11.78;100.00;100221.47;1693310;84;21050;-77
2022/10/08 07:58:38;;;;;;;24.87;7.25;;;;;;;11.94;100.00;100220.02;1693451;84;21034;-77
2022/10/08 08:01:07;;;;;;;14.63;5.80;;;;;;;12.10;100.00;100216.42;1693797;84;21015;-77
2022/10/08 08:03:34;;;;;;;10.28;5.80;;;;;;;12.24;100.00;100220.67;1693336;84;21845;-77
2022/10/08 08:06:11;;;;;;;12.28;5.37;;;;;;;12.38;100.00;100207.55;1693345;84;21533;-80
2022/10/08 08:08:40;;;;;;;7.75;4.90;;;;;;;12.54;100.00;100201.75;1693397;84;20983;-77
2022/10/08 08:11:08;;;;;;;5.97;3.70;;;;;;;12.71;100.00;100204.56;1693354;84;21027;-77
2022/10/08 08:13:38;;;;;;;8.08;3.08;;;;;;;12.87;98.11;100208.72;1693367;84;20959;-77
2022/10/08 08:16:16;;;;;;;5.00;2.50;;;;;;;13.04;96.16;100198.46;1693316;84;21357;-79
2022/10/08 08:18:48;;;;;;;3.67;2.50;;;;;;;13.20;92.85;100196.11;1657674;86;20968;-79
2022/10/08 08:21:17;;;;;;;4.03;1.60;;;;;;;13.33;89.58;100190.34;1657529;86;20971;-79
2022/10/08 08:23:46;;;;;;;8.05;2.27;;;;;;;13.47;86.30;100190.21;1647029;87;20999;-80
2022/10/08 08:26:20;;;;;;;4.33;2.45;;;;;;;13.58;83.88;100185.41;1635809;87;21076;-80
2022/10/08 08:28:51;;;;;;;;;;;;;;;13.69;81.93;100185.33;1638000;87;21179;-80
2022/10/08 08:31:21;;;;;;;5.58;2.10;;;;;;;13.82;79.59;100183.48;1627532;87;20141;-80
2022/10/08 08:33:59;;;;;;;5.42;2.30;;;;;;;13.90;79.22;100174.39;1635737;87;20999;-80
2022/10/08 08:36:29;;;;;;;7.62;2.35;;;;;;;14.00;78.44;100185.28;1621432;87;21036;-80
2022/10/08 08:38:57;;;;;;;2.22;1.45;;;;;;;14.07;78.32;100169.72;1633088;87;21019;-80
2022/10/08 08:42:04;;;;;;;11.40;2.37;;;;;;;14.13;77.36;100173.38;1635771;87;21261;-80
2022/10/08 08:44:40;;;;;;;9.23;2.62;;;;;;;14.19;77.20;100174.39;1635754;87;20975;-79
2022/10/08 08:47:33;;;;;;;6.10;2.15;;;;;;;14.29;75.81;100166.53;1635847;87;20995;-80
2022/10/08 08:50:26;;;;;;;3.35;1.80;;;;;;;14.37;75.26;100169.66;1635848;87;21066;-79
2022/10/08 08:52:54;;;;;;;5.28;1.72;;;;;;;14.48;75.53;100171.80;1635851;87;20967;-79
2022/10/08 08:55:36;;;;;;;5.47;1.80;;;;;;;14.56;74.69;100168.38;1635765;87;21259;-77
2022/10/08 08:58:10;;;;;;;4.40;1.72;;;;;;;14.61;73.94;100167.68;1635758;87;21550;-78
2022/10/08 09:00:44;;;;;;;7.72;2.55;;;;;;;14.66;73.27;100164.85;1635838;87;20983;-78
2022/10/08 09:03:33;;;;;;;3.15;1.70;;;;;;;14.71;73.72;100161.11;1635858;87;21683;-78
2022/10/08 09:06:05;;;;;;;4.28;2.20;;;;;;;14.77;73.03;100158.66;1635848;87;21518;-79
2022/10/08 09:08:41;;;;;;;4.17;2.05;;;;;;;14.88;71.68;100158.14;1627245;87;21159;-76
2022/10/08 09:11:16;;;;;;;6.15;1.75;;;;;;;14.88;71.68;100158.14;1602159;87;21415;-78
2022/10/08 09:13:50;;;;;;;2.45;1.60;;;;;;;14.91;72.08;100150.98;1636529;87;20983;-79
2022/10/08 09:16:19;;;;;;;4.05;1.70;;;;;;;14.99;72.22;100149.28;1632979;87;47382;-77
2022/10/08 09:18:47;;;;;;;8.68;2.25;;;;;;;15.08;72.21;100143.61;1635845;87;21031;-78
2022/10/08 09:21:14;;;;;;;4.05;1.40;;;;;;;15.21;69.64;100141.22;1630167;86;21453;-79
2022/10/08 09:23:41;;;;;;;2.87;1.47;;;;;;;15.21;69.64;100141.22;1609108;89;21088;-78
2022/10/08 09:26:24;;;;;;;4.22;1.90;;;;;;;15.29;69.29;100137.77;1609246;88;21127;-79
2022/10/08 09:28:57;;;;;;;7.90;1.72;;;;;;;15.35;68.42;100140.09;1621503;88;21027;-80
2022/10/08 09:31:40;;;;;;;3.05;1.40;;;;;;;15.40;67.32;100135.44;1671006;85;21467;-80
2022/10/08 09:34:17;;;;;;;3.60;1.60;;;;;;;15.45;67.25;100136.91;1671856;85;21247;-79
2022/10/08 09:36:55;;;;;;;4.15;1.35;;;;;;;15.50;66.73;100140.62;1675151;85;20980;-78
2022/10/08 09:39:24;;;;;;;3.60;1.55;;;;;;;15.55;66.74;100136.45;1670510;85;21028;-78
2022/10/08 09:42:13;;;;;;;2.62;1.42;;;;;;;15.60;65.60;100130.52;1668933;85;21019;-78
2022/10/08 09:44:49;;;;;;;1.75;1.30;;;;;;;15.64;65.22;100128.13;1669807;85;21019;-79
2022/10/08 09:47:20;;;;;;;1.87;1.27;;;;;;;15.69;64.67;100120.88;1664532;85;21161;-78
2022/10/08 09:50:18;;;;;;;6.95;1.50;;;;;;;15.73;64.51;100118.03;1660109;85;21466;-79
2022/10/08 09:52:47;;;;;;;9.40;2.08;;;;;;;15.77;64.12;100109.54;1675874;85;20968;-79
2022/10/08 09:55:28;;;;;;;8.38;1.60;;;;;;;15.91;63.01;100117.98;1664134;85;21177;-79
2022/10/08 09:58:02;;;;;;;3.33;1.30;;;;;;;15.91;63.01;100117.98;1671756;85;20984;-77
2022/10/08 10:00:34;;;;;;;1.45;1.20;;;;;;;15.94;62.83;100109.48;1666761;85;21808;-77
2022/10/08 10:03:02;;;;;;;2.75;1.45;;;;;;;16.05;63.40;100111.52;1671962;85;20963;-78
2022/10/08 10:05:31;;;;;;;6.00;2.75;;;;;;;16.05;63.40;100111.52;1666310;85;21578;-78
2022/10/08 10:07:57;;;;;;;7.50;2.00;;;;;;;16.10;63.15;100101.63;1665066;85;21436;-78
2022/10/08 10:10:34;;;;;;;5.35;1.62;;;;;;;16.19;62.71;100089.31;1648924;86;20964;-78
2022/10/08 10:13:12;;;;;;;2.60;1.92;;;;;;;16.19;62.71;100089.31;1662584;85;21792;-79
2022/10/08 10:15:55;;;;;;;3.52;1.60;;;;;;;16.26;62.32;100089.83;1636264;87;21111;-77
2022/10/08 10:18:39;;;;;;;4.28;1.77;;;;;;;16.33;61.94;100092.05;1633445;87;21030;-79
2022/10/08 10:21:06;;;;;;;12.30;2.17;;;;;;;16.42;61.75;100082.80;1627210;86;20979;-77
2022/10/08 10:23:37;;;;;;;13.15;3.22;;;;;;;16.49;61.74;100083.69;1654651;86;21515;-78
2022/10/08 10:26:26;;;;;;;4.90;1.80;;;;;;;16.54;60.88;100073.78;1647103;87;21170;-77
2022/10/08 10:29:11;;;;;;;4.22;2.08;;;;;;;16.58;60.34;100070.99;1635646;87;21529;-77
2022/10/08 10:32:01;;;;;;;3.15;1.55;;;;;;;16.62;60.14;100071.17;1635771;87;21003;-78
2022/10/08 10:34:29;;;;;;;2.98;1.40;;;;;;;16.64;59.82;100064.09;1635750;87;21095;-78
2022/10/08 10:37:01;;;;;;;7.70;1.50;;;;;;;16.67;58.51;100056.88;1635789;87;20995;-78
2022/10/08 10:39:45;;;;;;;2.00;1.80;;;;;;;16.67;58.47;100050.31;1635927;87;21139;-78
2022/10/08 10:42:37;;;;;;;4.20;1.60;;;;;;;16.68;58.57;100052.48;1634131;87;21050;-79
2022/10/08 10:45:20;;;;;;;8.98;1.90;;;;;;;16.72;58.69;100053.53;1635142;87;21070;-81
2022/10/08 10:47:49;;;;;;;4.28;1.80;;;;;;;16.77;58.36;100054.59;1634423;87;21011;-80
2022/10/08 10:50:18;;;;;;;5.30;1.62;;;;;;;16.78;57.97;100039.21;1635710;87;20991;-79
2022/10/08 10:53:05;;;;;;;4.65;1.92;;;;;;;16.80;57.92;100044.73;1613700;87;21805;-79
2022/10/08 10:55:37;;;;;;;2.02;1.40;;;;;;;16.82;57.88;100040.23;1635704;87;21054;-79
2022/10/08 10:58:28;;;;;;;3.65;1.40;;;;;;;16.84;57.73;100029.17;1608494;87;21002;-79
2022/10/08 11:01:46;;;;;;;5.00;1.80;;;;;;;16.89;57.62;100027.59;1635549;87;21031;-78
2022/10/08 11:04:46;;;;;;;7.50;1.72;;;;;;;16.93;57.84;100025.64;1635902;87;21103;-80
2022/10/08 11:07:33;;;;;;;3.75;1.67;;;;;;;16.97;57.90;100018.81;1608521;87;21199;-78
2022/10/08 11:10:28;;;;;;;6.70;1.50;;;;;;;17.00;56.70;100014.66;1635813;87;21082;-81
2022/10/08 11:13:29;;;;;;;7.95;2.00;;;;;;;16.98;56.31;100006.52;1635868;87;21051;-79
2022/10/08 11:16:23;;;;;;;4.97;1.60;;;;;;;16.97;55.33;100004.36;1635882;87;21003;-80
2022/10/08 11:18:59;;;;;;;5.47;1.90;;;;;;;16.97;55.02;99999.10;1635918;87;21075;-80
2022/10/08 11:21:55;;;;;;;6.28;2.08;;;;;;;16.98;54.81;99990.75;1635250;87;21221;-80
2022/10/08 11:24:51;;;;;;;2.00;1.50;;;;;;;17.01;55.10;99989.23;1603595;88;21070;-79
2022/10/08 11:27:35;;;;;;;11.90;2.30;;;;;;;17.04;53.93;99982.02;1623674;87;21028;-78
2022/10/08 11:30:13;;;;;;;3.30;1.62;;;;;;;17.07;53.80;99976.58;1635126;87;21086;-79
2022/10/08 11:32:47;;;;;;;4.15;3.72;;;;;;;17.10;54.38;99969.83;1635896;87;21130;-79
2022/10/08 11:35:38;;;;;;;5.47;1.45;;;;;;;17.12;52.80;99965.33;1631008;87;21137;-79
2022/10/08 11:38:36;;;;;;;5.92;1.92;;;;;;;17.12;52.95;99960.54;1635818;87;20991;-81
2022/10/08 11:41:17;;;;;;;6.62;2.05;;;;;;;17.13;52.93;99957.81;1635835;87;21043;-79
2022/10/08 11:43:53;;;;;;;3.30;1.55;;;;;;;17.13;52.50;99956.97;1631399;87;21092;-79
2022/10/08 11:46:30;;;;;;;3.02;1.60;;;;;;;17.12;51.58;99952.66;1633398;87;21062;-79
2022/10/08 11:49:17;;;;;;;3.12;1.30;;;;;;;17.10;51.51;99952.74;1635835;87;21609;-79
2022/10/08 11:51:45;;;;;;;4.03;1.50;;;;;;;17.09;51.55;99948.42;1635752;87;21027;-79
2022/10/08 11:54:37;;;;;;;1.87;1.20;;;;;;;17.06;51.47;99939.41;1635816;86;21087;-79